Time;durP1;ratioP1;P1;durP2;ratioP2;P2;SDS_P1;SDS_P2;PMS_P1;PMS_P2;Temp;Humidity;BMP_temperature;BMP_pressure;BME280_temperature;BME280_humidity;BME280_pressure;Samples;Min_cycle;Max_cycle;Signal;HPM_P1;HPM_P2
2022/04/29 00:01:17;;;;;;;;;;;19.00;58.50;;;;;;5012069;28;2294;-69
2022/04/29 00:03:42;;;;;;;;;;;19.00;58.50;;;;;;5011659;28;1651;-69
2022/04/29 00:06:08;;;;;;;;;;;19.00;58.50;;;;;;5012802;28;1181;-69
2022/04/29 00:08:33;;;;;;;;;;;19.00;58.70;;;;;;5011230;28;1951;-70
2022/04/29 00:10:59;;;;;;;;;;;19.00;58.60;;;;;;5013752;28;1236;-69
2022/04/29 00:13:24;;;;;;;;;;;19.00;58.60;;;;;;5018715;28;1283;-69
2022/04/29 00:15:49;;;;;;;;;;;19.00;58.60;;;;;;4998618;28;1291;-69
2022/04/29 00:18:15;;;;;;;;;;;19.00;58.60;;;;;;5022392;28;1964;-69
2022/04/29 00:20:40;;;;;;;;;;;19.00;58.60;;;;;;5015163;28;1255;-68
2022/04/29 00:23:06;;;;;;;;;;;19.00;58.60;;;;;;4998544;28;1248;-68
2022/04/29 00:25:32;;;;;;;;;;;19.00;58.60;;;;;;5015328;28;1263;-69
2022/04/29 00:27:57;;;;;;;;;;;19.00;58.60;;;;;;5016355;28;1357;-69
2022/04/29 00:30:23;;;;;;;;;;;19.00;58.70;;;;;;5016382;28;1260;-70
2022/04/29 00:32:48;;;;;;;;;;;19.00;58.70;;;;;;5015680;28;1315;-69
2022/04/29 00:35:14;;;;;;;;;;;19.00;58.70;;;;;;5026531;28;1083;-69
2022/04/29 00:37:58;;;;;;;;;;;18.90;58.70;;;;;;5019210;28;1329;-69
2022/04/29 00:40:24;;;;;;;;;;;19.00;58.80;;;;;;5015322;28;1306;-69
2022/04/29 00:42:49;;;;;;;;;;;18.90;58.70;;;;;;5014826;28;1377;-70
2022/04/29 00:45:17;;;;;;;;;;;18.90;58.70;;;;;;5014753;28;1267;-69
2022/04/29 00:47:43;;;;;;;;;;;18.90;58.70;;;;;;5014490;28;1332;-69
2022/04/29 00:50:09;;;;;;;;;;;18.90;58.70;;;;;;5027082;28;1045;-69
2022/04/29 00:52:35;;;;;;;;;;;18.90;58.80;;;;;;5015242;28;1096;-69
2022/04/29 00:55:02;;;;;;;;;;;18.90;58.80;;;;;;5014717;28;1380;-70
2022/04/29 00:57:29;;;;;;;;;;;18.90;58.80;;;;;;5014111;28;1311;-70
2022/04/29 00:59:55;;;;;;;;;;;18.90;58.80;;;;;;5014442;28;1955;-69
2022/04/29 01:02:20;;;;;;;;;;;18.90;58.80;;;;;;5027580;28;1139;-69
2022/04/29 01:04:48;;;;;;;;;;;18.90;58.80;;;;;;5014418;28;1310;-69
2022/04/29 01:07:13;;;;;;;;;;;18.90;58.80;;;;;;5015122;28;1276;-69
2022/04/29 01:09:39;;;;;;;;;;;18.90;58.80;;;;;;5030508;28;1591;-69
2022/04/29 01:12:04;;;;;;;;;;;18.90;58.80;;;;;;5015316;28;1331;-69
2022/04/29 01:14:30;;;;;;;;;;;18.90;58.80;;;;;;5015566;28;1265;-69
2022/04/29 01:16:58;;;;;;;;;;;18.90;58.90;;;;;;5012969;28;1346;-69
2022/04/29 01:19:24;;;;;;;;;;;18.90;58.90;;;;;;5009211;28;1906;-69
2022/04/29 01:21:50;;;;;;;;;;;18.90;58.90;;;;;;5013443;28;2091;-69
2022/04/29 01:24:15;;;;;;;;;;;18.90;58.90;;;;;;5014667;28;1144;-70
2022/04/29 01:26:40;;;;;;;;;;;18.90;58.90;;;;;;5015095;28;1126;-69
2022/04/29 01:29:06;;;;;;;;;;;18.90;58.90;;;;;;5014894;28;1337;-69
2022/04/29 01:31:32;;;;;;;;;;;18.90;58.90;;;;;;5014014;28;1323;-69
2022/04/29 01:33:57;;;;;;;;;;;18.90;58.90;;;;;;5014279;28;1328;-69
2022/04/29 01:36:23;;;;;;;;;;;18.90;58.90;;;;;;5012101;28;1294;-69
2022/04/29 01:38:48;;;;;;;;;;;18.90;59.00;;;;;;5012628;28;1914;-69
2022/04/29 01:41:13;;;;;;;;;;;18.90;59.00;;;;;;5014726;28;1377;-69
2022/04/29 01:43:39;;;;;;;;;;;18.90;58.90;;;;;;5014923;28;1286;-69
2022/04/29 01:46:04;;;;;;;;;;;18.80;58.90;;;;;;5014825;28;1326;-69
2022/04/29 01:48:30;;;;;;;;;;;18.90;59.00;;;;;;5013335;28;1227;-69
2022/04/29 01:50:55;;;;;;;;;;;18.90;59.00;;;;;;5014621;28;1401;-69
2022/04/29 01:53:21;;;;;;;;;;;18.80;58.90;;;;;;5030093;28;1268;-69
2022/04/29 01:55:46;;;;;;;;;;;18.80;58.90;;;;;;5029779;28;1294;-69
2022/04/29 01:58:12;;;;;;;;;;;18.80;58.90;;;;;;5013103;28;1957;-69
2022/04/29 02:00:37;;;;;;;;;;;18.80;58.90;;;;;;5014478;28;1465;-70
2022/04/29 02:03:03;;;;;;;;;;;18.80;58.90;;;;;;5013769;28;1252;-69
2022/04/29 02:05:28;;;;;;;;;;;18.80;59.00;;;;;;5014833;28;1341;-69
2022/04/29 02:07:53;;;;;;;;;;;18.80;59.00;;;;;;5014345;28;1278;-69
2022/04/29 02:10:20;;;;;;;;;;;18.80;59.00;;;;;;5012866;28;1116;-69
2022/04/29 02:12:46;;;;;;;;;;;18.80;59.00;;;;;;5014433;28;1104;-69
2022/04/29 02:15:12;;;;;;;;;;;18.80;58.90;;;;;;5013567;28;2038;-69
2022/04/29 02:17:37;;;;;;;;;;;18.80;59.00;;;;;;5013552;28;1304;-69
2022/04/29 02:20:03;;;;;;;;;;;18.80;59.00;;;;;;5012954;28;1961;-69
2022/04/29 02:22:28;;;;;;;;;;;18.80;59.00;;;;;;5014306;28;1590;-69
2022/04/29 02:24:54;;;;;;;;;;;18.80;59.00;;;;;;5012339;28;2158;-70
2022/04/29 02:27:19;;;;;;;;;;;18.80;59.00;;;;;;5013187;28;2126;-67
2022/04/29 02:29:44;;;;;;;;;;;18.80;59.10;;;;;;5012664;28;1148;-67
2022/04/29 02:32:10;;;;;;;;;;;18.80;59.10;;;;;;5013975;28;1220;-68
2022/04/29 02:34:36;;;;;;;;;;;18.80;59.10;;;;;;5014323;28;1156;-67
2022/04/29 02:37:02;;;;;;;;;;;18.80;59.10;;;;;;5013589;28;1357;-68
2022/04/29 02:39:27;;;;;;;;;;;18.80;59.10;;;;;;5013871;28;1898;-69
2022/04/29 02:41:55;;;;;;;;;;;18.80;59.10;;;;;;5013827;28;1212;-71
2022/04/29 02:44:20;;;;;;;;;;;18.80;59.10;;;;;;5013761;28;1295;-70
2022/04/29 02:49:30;;;;;;;;;;;18.80;59.10;;;;;;5013307;28;2084;-69
2022/04/29 02:51:55;;;;;;;;;;;18.80;59.10;;;;;;5013976;28;1283;-68
2022/04/29 02:54:21;;;;;;;;;;;18.80;59.10;;;;;;5013910;28;1248;-68
2022/04/29 02:56:46;;;;;;;;;;;18.70;59.10;;;;;;5013728;28;1343;-69
2022/04/29 02:59:11;;;;;;;;;;;18.70;59.10;;;;;;5013811;28;1902;-68
2022/04/29 03:01:37;;;;;;;;;;;18.70;59.10;;;;;;5026947;28;1131;-68
2022/04/29 03:04:02;;;;;;;;;;;18.70;59.10;;;;;;5013934;28;1340;-68
2022/04/29 03:06:28;;;;;;;;;;;18.70;59.10;;;;;;5013401;28;1218;-68
2022/04/29 03:08:53;;;;;;;;;;;18.70;59.10;;;;;;5001415;28;1281;-68
2022/04/29 03:11:19;;;;;;;;;;;18.70;59.10;;;;;;5013670;28;1329;-68
2022/04/29 03:13:44;;;;;;;;;;;18.70;59.10;;;;;;5020951;28;1083;-68
2022/04/29 03:16:10;;;;;;;;;;;18.70;59.10;;;;;;5019657;28;1178;-68
2022/04/29 03:18:35;;;;;;;;;;;18.70;59.10;;;;;;5005491;28;1906;-69
2022/04/29 03:21:01;;;;;;;;;;;18.70;59.20;;;;;;5025358;28;2110;-69
2022/04/29 03:23:27;;;;;;;;;;;18.70;59.10;;;;;;5012985;28;2396;-68
2022/04/29 03:25:52;;;;;;;;;;;18.80;59.20;;;;;;5007571;28;1222;-69
2022/04/29 03:28:17;;;;;;;;;;;18.70;59.20;;;;;;5011229;28;1291;-70
2022/04/29 03:30:43;;;;;;;;;;;18.70;59.20;;;;;;5011825;28;1132;-70
2022/04/29 03:33:09;;;;;;;;;;;18.70;59.10;;;;;;5007802;28;1024;-69
2022/04/29 03:35:37;;;;;;;;;;;18.70;59.20;;;;;;5012800;28;1934;-68
2022/04/29 03:38:03;;;;;;;;;;;18.70;59.20;;;;;;5005926;28;1967;-68
2022/04/29 03:40:28;;;;;;;;;;;18.70;59.20;;;;;;5013167;28;1259;-68
2022/04/29 03:42:54;;;;;;;;;;;18.70;59.20;;;;;;5012058;28;1184;-68
2022/04/29 03:45:20;;;;;;;;;;;18.70;59.20;;;;;;5012921;28;1143;-68
2022/04/29 03:47:45;;;;;;;;;;;18.70;59.20;;;;;;5019293;28;1287;-68
2022/04/29 03:50:11;;;;;;;;;;;18.70;59.20;;;;;;5019672;28;1298;-68
2022/04/29 03:52:49;;;;;;;;;;;18.70;59.20;;;;;;5013354;28;1207;-69
2022/04/29 03:55:15;;;;;;;;;;;18.70;59.20;;;;;;5013259;28;1291;-70
2022/04/29 03:57:40;;;;;;;;;;;18.70;59.20;;;;;;5013466;28;1361;-69
2022/04/29 04:00:06;;;;;;;;;;;18.70;59.20;;;;;;5013100;28;1891;-69
2022/04/29 04:02:32;;;;;;;;;;;18.70;59.20;;;;;;5011884;28;1312;-69
2022/04/29 04:04:57;;;;;;;;;;;18.70;59.30;;;;;;5012578;28;1286;-69
2022/04/29 04:07:23;;;;;;;;;;;18.70;59.20;;;;;;5012705;28;1302;-69
2022/04/29 04:09:49;;;;;;;;;;;18.70;59.20;;;;;;5012973;28;1115;-69
2022/04/29 04:12:14;;;;;;;;;;;18.70;59.20;;;;;;5011908;28;1387;-68
2022/04/29 04:14:40;;;;;;;;;;;18.70;59.30;;;;;;5011679;28;1209;-67
2022/04/29 04:17:05;;;;;;;;;;;18.70;59.20;;;;;;5010128;28;1299;-68
2022/04/29 04:19:31;;;;;;;;;;;18.70;59.20;;;;;;5007530;28;1967;-68
2022/04/29 04:21:57;;;;;;;;;;;18.70;59.30;;;;;;5012816;28;1279;-68
2022/04/29 04:24:22;;;;;;;;;;;18.70;59.20;;;;;;5012868;28;1412;-68
2022/04/29 04:26:47;;;;;;;;;;;18.70;59.20;;;;;;5011554;28;1344;-68
2022/04/29 04:29:13;;;;;;;;;;;18.70;59.30;;;;;;5012791;28;1397;-68
2022/04/29 04:31:38;;;;;;;;;;;18.70;59.30;;;;;;5012891;28;1350;-68
2022/04/29 04:34:49;;;;;;;;;;;18.70;59.30;;;;;;5012403;28;1321;-68
2022/04/29 04:36:52;;;;;;;;;;;18.70;59.30;;;;;;5008825;28;1378;-69
2022/04/29 04:39:18;;;;;;;;;;;18.70;59.30;;;;;;5011347;28;1960;-69
2022/04/29 04:41:43;;;;;;;;;;;18.70;59.30;;;;;;5012690;28;1318;-68
2022/04/29 04:44:09;;;;;;;;;;;18.70;59.30;;;;;;5012642;28;1290;-69
2022/04/29 04:46:35;;;;;;;;;;;18.70;59.30;;;;;;5012472;28;1300;-68
2022/04/29 04:49:01;;;;;;;;;;;18.60;59.20;;;;;;5011085;28;1544;-68
2022/04/29 04:51:26;;;;;;;;;;;18.60;59.30;;;;;;5012561;28;1293;-68
2022/04/29 04:53:52;;;;;;;;;;;18.70;59.30;;;;;;5011333;28;1369;-68
2022/04/29 04:56:17;;;;;;;;;;;18.60;59.30;;;;;;5012583;28;1274;-69
2022/04/29 04:58:42;;;;;;;;;;;18.60;59.30;;;;;;5014379;28;1902;-68
2022/04/29 05:01:08;;;;;;;;;;;18.70;59.30;;;;;;5015948;28;1255;-68
2022/04/29 05:03:33;;;;;;;;;;;18.60;59.30;;;;;;5015945;28;1351;-72
2022/04/29 05:05:59;;;;;;;;;;;18.60;59.30;;;;;;5016068;28;1227;-72
2022/04/29 05:08:24;;;;;;;;;;;18.70;59.30;;;;;;5012212;28;1445;-72
2022/04/29 05:10:50;;;;;;;;;;;18.70;59.30;;;;;;5016198;28;1115;-72
2022/04/29 05:13:15;;;;;;;;;;;18.70;59.30;;;;;;5019465;28;1257;-71
2022/04/29 05:15:42;;;;;;;;;;;18.70;59.20;;;;;;5015562;28;1288;-71
2022/04/29 05:18:08;;;;;;;;;;;18.70;59.20;;;;;;5007575;28;1964;-71
2022/04/29 05:20:34;;;;;;;;;;;18.80;59.10;;;;;;5015818;28;1272;-71
2022/04/29 05:22:59;;;;;;;;;;;18.80;59.00;;;;;;5030930;28;1430;-71
2022/04/29 05:25:25;;;;;;;;;;;18.90;58.90;;;;;;5015620;28;1143;-69
2022/04/29 05:27:50;;;;;;;;;;;19.00;58.80;;;;;;5015281;28;1373;-69
2022/04/29 05:30:15;;;;;;;;;;;19.10;58.70;;;;;;5015356;28;1351;-69
2022/04/29 05:32:41;;;;;;;;;;;19.10;58.50;;;;;;5015479;28;1285;-69
2022/04/29 05:35:06;;;;;;;;;;;19.20;58.40;;;;;;5015449;28;1292;-69
2022/04/29 05:37:32;;;;;;;;;;;19.30;58.20;;;;;;5049079;23;2008;-74
2022/04/29 05:42:41;;;;;;;;;;;19.50;57.90;;;;;;5054169;28;1177;-71
2022/04/29 05:45:07;;;;;;;;;;;19.60;57.60;;;;;;5055228;28;1273;-73
2022/04/29 05:47:33;;;;;;;;;;;19.60;57.40;;;;;;5052833;28;1377;-74
2022/04/29 05:49:58;;;;;;;;;;;19.70;57.30;;;;;;5046355;28;1147;-74
2022/04/29 05:52:24;;;;;;;;;;;19.80;57.20;;;;;;5054840;28;1327;-74
2022/04/29 05:54:50;;;;;;;;;;;19.80;57.00;;;;;;5046657;28;1765;-69
2022/04/29 05:57:15;;;;;;;;;;;19.80;56.80;;;;;;5048090;28;2017;-70
2022/04/29 05:59:40;;;;;;;;;;;19.80;56.70;;;;;;5042677;28;1977;-69
2022/04/29 06:02:06;;;;;;;;;;;19.90;56.70;;;;;;5043066;28;1354;-71
2022/04/29 06:04:32;;;;;;;;;;;19.90;56.60;;;;;;5033972;28;1299;-69
2022/04/29 06:06:57;;;;;;;;;;;19.90;56.50;;;;;;5042699;28;1306;-69
2022/04/29 06:09:22;;;;;;;;;;;19.90;56.50;;;;;;5045867;28;1306;-70
2022/04/29 06:11:48;;;;;;;;;;;19.90;56.50;;;;;;5054561;28;1039;-71
2022/04/29 06:14:13;;;;;;;;;;;19.90;56.50;;;;;;5054345;28;1304;-72
2022/04/29 06:16:39;;;;;;;;;;;19.90;56.40;;;;;;5052955;28;1112;-73
2022/04/29 06:19:04;;;;;;;;;;;19.90;56.40;;;;;;5046321;28;1961;-72
2022/04/29 06:21:30;;;;;;;;;;;19.90;56.40;;;;;;5052967;28;1483;-73
2022/04/29 06:23:55;;;;;;;;;;;19.90;56.40;;;;;;5054450;28;1339;-73
2022/04/29 06:26:20;;;;;;;;;;;20.00;56.50;;;;;;5045695;28;1306;-72
2022/04/29 06:28:46;;;;;;;;;;;19.90;56.50;;;;;;5054176;28;1286;-71
2022/04/29 06:31:12;;;;;;;;;;;19.90;56.40;;;;;;5053849;28;1396;-71
2022/04/29 06:33:38;;;;;;;;;;;19.90;56.40;;;;;;5054215;28;1076;-74
2022/04/29 06:36:05;;;;;;;;;;;19.90;56.50;;;;;;5039529;28;1238;-73
2022/04/29 06:38:31;;;;;;;;;;;19.90;56.50;;;;;;5048583;28;1974;-71
2022/04/29 06:40:56;;;;;;;;;;;19.90;56.50;;;;;;5032666;28;1394;-72
2022/04/29 06:43:22;;;;;;;;;;;19.90;56.50;;;;;;5044742;28;1300;-73
2022/04/29 06:45:47;;;;;;;;;;;20.00;56.50;;;;;;5044747;28;1204;-74
2022/04/29 06:48:13;;;;;;;;;;;19.90;56.50;;;;;;5046591;28;1315;-74
2022/04/29 06:50:38;;;;;;;;;;;19.90;56.50;;;;;;5052582;28;1498;-70
2022/04/29 06:53:04;;;;;;;;;;;19.90;56.60;;;;;;5035721;28;1324;-71
2022/04/29 06:55:30;;;;;;;;;;;19.90;57.10;;;;;;5053665;28;1294;-74
2022/04/29 06:57:55;;;;;;;;;;;19.90;56.60;;;;;;5053022;28;1263;-73
2022/04/29 07:00:21;;;;;;;;;;;19.90;56.60;;;;;;5053484;28;1962;-73
2022/04/29 07:02:46;;;;;;;;;;;19.90;56.60;;;;;;5052512;28;1298;-71
2022/04/29 07:05:12;;;;;;;;;;;19.90;56.70;;;;;;5053995;28;1115;-72
2022/04/29 07:07:40;;;;;;;;;;;19.90;56.70;;;;;;5052620;28;1362;-72
2022/04/29 07:10:06;;;;;;;;;;;19.90;56.70;;;;;;5053534;28;1197;-72
2022/04/29 07:12:38;;;;;;;;;;;19.90;56.70;;;;;;5052919;28;1270;-71
2022/04/29 07:15:04;;;;;;;;;;;19.80;56.70;;;;;;5052847;28;1241;-72
2022/04/29 07:17:29;;;;;;;;;;;19.90;56.80;;;;;;5052373;28;1295;-70
2022/04/29 07:19:54;;;;;;;;;;;19.90;56.80;;;;;;5043685;28;1952;-71
2022/04/29 07:22:20;;;;;;;;;;;19.90;56.80;;;;;;5052846;28;1146;-71
2022/04/29 07:24:45;;;;;;;;;;;19.80;56.80;;;;;;5039767;28;1187;-71
2022/04/29 07:27:14;;;;;;;;;;;19.80;56.80;;;;;;5031989;28;1283;-71
2022/04/29 07:29:39;;;;;;;;;;;19.80;56.80;;;;;;5051403;28;1120;-71
2022/04/29 07:32:05;;;;;;;;;;;19.80;56.90;;;;;;5053269;28;1287;-71
2022/04/29 07:42:44;;;;;;;;;;;19.80;57.00;;;;;;5053563;28;1309;-72
2022/04/29 07:45:20;;;;;;;;;;;19.70;56.90;;;;;;5053350;28;1227;-71
2022/04/29 07:47:46;;;;;;;;;;;19.70;57.00;;;;;;5053151;28;1390;-72
2022/04/29 07:50:13;;;;;;;;;;;19.70;57.00;;;;;;5052979;28;1483;-72
2022/04/29 07:52:38;;;;;;;;;;;19.70;57.00;;;;;;5035613;28;1247;-72
2022/04/29 07:55:04;;;;;;;;;;;19.70;57.10;;;;;;5051567;28;1279;-74
2022/04/29 07:57:29;;;;;;;;;;;19.70;57.20;;;;;;5052801;28;1282;-74
2022/04/29 07:59:55;;;;;;;;;;;19.70;57.20;;;;;;5051441;28;1909;-74
2022/04/29 08:02:20;;;;;;;;;;;19.70;57.20;;;;;;5051392;28;1365;-74
2022/04/29 08:04:48;;;;;;;;;;;19.60;57.20;;;;;;5053115;28;1079;-74
2022/04/29 08:07:14;;;;;;;;;;;19.60;57.20;;;;;;5043303;28;1256;-74
2022/04/29 08:09:39;;;;;;;;;;;19.60;57.30;;;;;;5047463;28;1135;-74
2022/04/29 08:12:05;;;;;;;;;;;19.60;57.30;;;;;;5052702;28;1311;-74
2022/04/29 08:14:31;;;;;;;;;;;19.60;57.40;;;;;;5051388;28;1270;-74
2022/04/29 08:16:57;;;;;;;;;;;19.60;57.40;;;;;;5050027;28;1116;-74
2022/04/29 08:19:23;;;;;;;;;;;19.60;57.40;;;;;;5045068;28;1979;-72
2022/04/29 08:21:48;;;;;;;;;;;19.50;57.40;;;;;;5052590;28;1475;-74
2022/04/29 08:24:14;;;;;;;;;;;19.60;57.50;;;;;;5051403;28;953;-74
2022/04/29 08:26:40;;;;;;;;;;;19.50;57.50;;;;;;5045121;28;1102;-75
2022/04/29 08:29:05;;;;;;;;;;;19.50;57.50;;;;;;5046282;28;1213;-75
2022/04/29 08:31:30;;;;;;;;;;;19.50;57.60;;;;;;5052672;28;1016;-74
2022/04/29 08:33:56;;;;;;;;;;;19.50;57.60;;;;;;5043177;28;1059;-74
2022/04/29 08:36:21;;;;;;;;;;;19.50;57.60;;;;;;5057146;28;1051;-74
2022/04/29 08:38:47;;;;;;;;;;;19.50;57.70;;;;;;5056083;28;1914;-74
2022/04/29 08:41:12;;;;;;;;;;;19.40;57.70;;;;;;5049648;28;1095;-74
2022/04/29 08:43:38;;;;;;;;;;;19.40;57.70;;;;;;5049998;28;1024;-73
2022/04/29 08:46:05;;;;;;;;;;;19.40;57.80;;;;;;5056043;28;1401;-72
2022/04/29 08:48:31;;;;;;;;;;;19.40;57.80;;;;;;5054795;28;1324;-72
2022/04/29 08:50:59;;;;;;;;;;;19.40;57.80;;;;;;5054807;28;1291;-71
2022/04/29 08:53:25;;;;;;;;;;;19.40;57.90;;;;;;5054832;28;1284;-71
2022/04/29 08:58:38;;;;;;;;;;;19.40;57.90;;;;;;5055358;28;2427;-72
2022/04/29 09:01:04;;;;;;;;;;;19.40;58.00;;;;;;5055995;28;1302;-73
2022/04/29 09:03:30;;;;;;;;;;;19.30;57.90;;;;;;5055703;28;1205;-73
2022/04/29 09:05:55;;;;;;;;;;;19.30;58.00;;;;;;5055646;28;1270;-72
2022/04/29 09:08:24;;;;;;;;;;;19.30;58.00;;;;;;5037792;28;1384;-73
2022/04/29 09:10:56;;;;;;;;;;;19.30;58.10;;;;;;5054853;28;1303;-72
2022/04/29 09:13:25;;;;;;;;;;;19.30;58.10;;;;;;5053927;28;1284;-72
2022/04/29 09:15:51;;;;;;;;;;;19.30;58.10;;;;;;5054986;28;1264;-72
2022/04/29 09:18:33;;;;;;;;;;;19.30;58.20;;;;;;5045200;28;1906;-72
2022/04/29 09:20:59;;;;;;;;;;;19.30;58.20;;;;;;5051672;28;1365;-72
2022/04/29 09:23:25;;;;;;;;;;;19.20;58.20;;;;;;5053651;28;1294;-72
2022/04/29 09:25:50;;;;;;;;;;;19.30;58.20;;;;;;5052163;28;1336;-72
2022/04/29 09:28:16;;;;;;;;;;;19.20;58.30;;;;;;5052977;28;1262;-71
2022/04/29 09:30:42;;;;;;;;;;;19.30;58.30;;;;;;5053674;28;1286;-71
2022/04/29 09:33:07;;;;;;;;;;;19.20;58.30;;;;;;5054813;28;1415;-71
2022/04/29 09:35:36;;;;;;;;;;;19.20;58.30;;;;;;5053686;28;1549;-71
2022/04/29 09:40:48;;;;;;;;;;;19.20;58.40;;;;;;5054847;28;1295;-72
2022/04/29 09:43:14;;;;;;;;;;;19.20;58.40;;;;;;5036463;28;1097;-70
2022/04/29 09:45:39;;;;;;;;;;;19.20;58.50;;;;;;5053700;28;1337;-69
2022/04/29 09:48:05;;;;;;;;;;;19.20;58.50;;;;;;5054388;28;1344;-70
2022/04/29 09:50:46;;;;;;;;;;;19.20;58.50;;;;;;5053472;28;1348;-71
2022/04/29 09:53:18;;;;;;;;;;;19.20;58.50;;;;;;5054917;28;1258;-71
2022/04/29 09:56:07;;;;;;;;;;;19.10;58.50;;;;;;5054508;28;1320;-71
2022/04/29 09:58:33;;;;;;;;;;;19.10;58.50;;;;;;5050564;28;1917;-70
2022/04/29 10:00:59;;;;;;;;;;;19.10;58.60;;;;;;5052936;28;1278;-71
2022/04/29 10:03:25;;;;;;;;;;;19.10;58.60;;;;;;5036607;28;1463;-72
2022/04/29 10:05:50;;;;;;;;;;;19.10;58.60;;;;;;5054427;28;1360;-72
2022/04/29 10:08:15;;;;;;;;;;;19.10;58.60;;;;;;5048383;28;1279;-73
2022/04/29 10:10:41;;;;;;;;;;;19.10;58.70;;;;;;5054436;28;803;-72
2022/04/29 10:13:07;;;;;;;;;;;19.10;58.70;;;;;;5081697;28;1126;-71
2022/04/29 10:15:35;;;;;;;;;;;19.00;58.70;;;;;;5046042;28;2035;-71
2022/04/29 10:23:30;;;;;;;;;;;19.00;58.70;;;;;;5040148;28;977;-71
2022/04/29 10:25:55;;;;;;;;;;;19.10;58.80;;;;;;5038306;28;1175;-72
2022/04/29 10:28:21;;;;;;;;;;;19.00;58.80;;;;;;5051354;28;1284;-72
2022/04/29 10:30:46;;;;;;;;;;;19.00;58.80;;;;;;5052402;28;1275;-71
2022/04/29 10:33:12;;;;;;;;;;;19.00;58.80;;;;;;5053243;28;1076;-71
2022/04/29 10:35:45;;;;;;;;;;;19.00;58.90;;;;;;5040164;28;1253;-72
2022/04/29 10:38:23;;;;;;;;;;;19.00;58.90;;;;;;5049379;28;1375;-72
2022/04/29 10:41:08;;;;;;;;;;;19.00;58.90;;;;;;5035078;28;1361;-73
2022/04/29 10:43:37;;;;;;;;;;;19.00;58.90;;;;;;5052135;28;1363;-74
2022/04/29 10:46:08;;;;;;;;;;;19.00;58.90;;;;;;5045957;28;1238;-72
2022/04/29 10:48:34;;;;;;;;;;;19.00;58.90;;;;;;5044574;28;1893;-73
2022/04/29 10:51:15;;;;;;;;;;;19.00;59.00;;;;;;5049940;28;1130;-73
2022/04/29 10:53:41;;;;;;;;;;;19.00;59.00;;;;;;5043485;28;1161;-73
2022/04/29 10:56:27;;;;;;;;;;;19.00;59.00;;;;;;5052426;28;1282;-73
2022/04/29 10:58:52;;;;;;;;;;;19.00;59.00;;;;;;5038775;28;1902;-73
2022/04/29 11:01:27;;;;;;;;;;;19.00;59.00;;;;;;5051659;28;2231;-74
2022/04/29 11:03:53;;;;;;;;;;;18.90;59.00;;;;;;5046050;28;1417;-73
2022/04/29 11:06:18;;;;;;;;;;;18.90;59.00;;;;;;5044397;28;1264;-72
2022/04/29 11:08:44;;;;;;;;;;;18.90;59.00;;;;;;5046123;28;1369;-72
2022/04/29 11:11:10;;;;;;;;;;;18.90;59.00;;;;;;5046084;28;1239;-72
2022/04/29 11:13:36;;;;;;;;;;;18.90;59.10;;;;;;5045486;28;1387;-73
2022/04/29 11:16:08;;;;;;;;;;;18.90;59.10;;;;;;5051868;28;1291;-73
2022/04/29 11:18:33;;;;;;;;;;;18.90;59.10;;;;;;5045356;28;1906;-73
2022/04/29 11:24:40;;;;;;;;;;;18.90;59.10;;;;;;5053090;28;1313;-73
2022/04/29 11:26:44;;;;;;;;;;;18.90;59.10;;;;;;5053067;28;1063;-72
2022/04/29 11:29:13;;;;;;;;;;;18.90;59.20;;;;;;5047655;28;1757;-73
2022/04/29 11:31:38;;;;;;;;;;;18.90;59.20;;;;;;5051256;28;1290;-72
2022/04/29 11:34:05;;;;;;;;;;;18.90;59.20;;;;;;5052212;28;1347;-72
2022/04/29 11:36:30;;;;;;;;;;;18.90;59.20;;;;;;5049036;28;1268;-73
2022/04/29 11:38:56;;;;;;;;;;;18.90;59.20;;;;;;5050635;28;1971;-72
2022/04/29 11:41:21;;;;;;;;;;;18.90;59.20;;;;;;5041004;28;1099;-72
2022/04/29 11:43:50;;;;;;;;;;;18.90;59.20;;;;;;5053043;28;1383;-74
2022/04/29 11:46:16;;;;;;;;;;;18.90;59.20;;;;;;5051664;28;1276;-72
2022/04/29 11:48:54;;;;;;;;;;;18.90;59.20;;;;;;5051449;28;1269;-72
2022/04/29 11:51:20;;;;;;;;;;;18.90;59.30;;;;;;5052831;28;1257;-70
2022/04/29 11:54:02;;;;;;;;;;;18.90;59.30;;;;;;5051506;28;1349;-70
2022/04/29 11:56:32;;;;;;;;;;;18.90;59.30;;;;;;5052967;28;1314;-70
2022/04/29 11:58:57;;;;;;;;;;;18.90;59.40;;;;;;5051160;28;1894;-72
2022/04/29 12:01:25;;;;;;;;;;;18.90;59.30;;;;;;5052976;28;1290;-72
2022/04/29 12:03:50;;;;;;;;;;;18.90;59.40;;;;;;5052564;28;1306;-71
2022/04/29 12:06:16;;;;;;;;;;;18.80;59.30;;;;;;5052853;28;1138;-71
2022/04/29 12:08:42;;;;;;;;;;;18.80;59.30;;;;;;5055282;28;1302;-70
2022/04/29 12:11:08;;;;;;;;;;;18.80;59.40;;;;;;5056946;28;1123;-73
2022/04/29 12:13:36;;;;;;;;;;;18.80;59.30;;;;;;5043250;28;1214;-72
2022/04/29 12:16:01;;;;;;;;;;;18.80;59.40;;;;;;5039210;28;1371;-72
2022/04/29 12:18:56;;;;;;;;;;;18.80;59.40;;;;;;5048279;28;1955;-73
2022/04/29 12:21:25;;;;;;;;;;;18.80;59.40;;;;;;5036083;28;1357;-73
2022/04/29 12:23:51;;;;;;;;;;;18.80;59.40;;;;;;5045781;28;1055;-73
2022/04/29 12:26:16;;;;;;;;;;;18.80;59.40;;;;;;5042053;28;1272;-73
2022/04/29 12:28:41;;;;;;;;;;;18.80;59.40;;;;;;5055068;28;1284;-73
2022/04/29 12:36:54;;;;;;;;;;;18.80;59.40;;;;;;5052287;28;1129;-74
2022/04/29 12:39:40;;;;;;;;;;;18.80;59.40;;;;;;5054132;28;1918;-74
2022/04/29 12:42:06;;;;;;;;;;;18.80;59.50;;;;;;5056033;28;1332;-74
2022/04/29 12:47:40;;;;;;;;;;;18.80;59.50;;;;;;5051329;28;1221;-74
2022/04/29 12:50:26;;;;;;;;;;;18.80;59.50;;;;;;5048942;28;1313;-73
2022/04/29 12:52:51;;;;;;;;;;;18.80;59.50;;;;;;5055276;28;1351;-72
2022/04/29 12:55:17;;;;;;;;;;;18.80;59.50;;;;;;5058416;28;1355;-73
2022/04/29 12:57:42;;;;;;;;;;;18.80;59.50;;;;;;5054533;28;1299;-73
2022/04/29 13:00:08;;;;;;;;;;;18.80;59.50;;;;;;5055773;28;1974;-73
2022/04/29 13:02:33;;;;;;;;;;;18.80;59.60;;;;;;5055909;28;1048;-74
2022/04/29 13:04:59;;;;;;;;;;;18.80;59.60;;;;;;5055815;28;1068;-72
2022/04/29 13:07:25;;;;;;;;;;;18.80;59.60;;;;;;5055381;28;1149;-72
2022/04/29 13:09:51;;;;;;;;;;;18.80;59.50;;;;;;5055667;28;1123;-72
2022/04/29 13:12:17;;;;;;;;;;;18.80;59.60;;;;;;5055660;28;1119;-72
2022/04/29 13:14:43;;;;;;;;;;;18.70;59.50;;;;;;5037912;28;1275;-72
2022/04/29 13:17:08;;;;;;;;;;;18.70;59.50;;;;;;5052469;28;1430;-73
2022/04/29 13:19:33;;;;;;;;;;;18.70;59.50;;;;;;5050143;28;1906;-72
2022/04/29 13:21:59;;;;;;;;;;;18.80;59.60;;;;;;5055675;28;1123;-72
2022/04/29 13:24:24;;;;;;;;;;;18.70;59.50;;;;;;5055618;28;1322;-72
2022/04/29 13:26:50;;;;;;;;;;;18.70;59.60;;;;;;5055545;28;1056;-72
2022/04/29 13:29:16;;;;;;;;;;;18.80;59.60;;;;;;5055223;28;1362;-73
2022/04/29 13:31:41;;;;;;;;;;;18.70;59.60;;;;;;5055225;28;1291;-72
2022/04/29 13:34:06;;;;;;;;;;;18.70;59.50;;;;;;5055248;28;1074;-73
2022/04/29 13:36:32;;;;;;;;;;;18.80;59.60;;;;;;5052399;28;1329;-72
2022/04/29 13:38:57;;;;;;;;;;;18.70;59.60;;;;;;5052715;28;1902;-73
2022/04/29 13:41:23;;;;;;;;;;;18.80;59.60;;;;;;5055262;28;1123;-73
2022/04/29 13:43:48;;;;;;;;;;;18.70;59.60;;;;;;5055058;28;1064;-73
2022/04/29 13:46:14;;;;;;;;;;;18.70;59.60;;;;;;5054877;28;1079;-73
2022/04/29 13:48:39;;;;;;;;;;;18.70;59.60;;;;;;5053428;28;1365;-73
2022/04/29 13:51:04;;;;;;;;;;;18.70;59.60;;;;;;5053707;28;1060;-73
2022/04/29 13:53:30;;;;;;;;;;;18.70;59.60;;;;;;5054881;28;1044;-72
2022/04/29 13:55:56;;;;;;;;;;;18.70;59.60;;;;;;5053712;28;1111;-73
2022/04/29 13:58:22;;;;;;;;;;;18.70;59.60;;;;;;5054455;28;1363;-73
2022/04/29 14:00:49;;;;;;;;;;;18.70;59.60;;;;;;5053447;28;1903;-73
2022/04/29 14:03:15;;;;;;;;;;;18.70;59.70;;;;;;5053607;28;1112;-73
2022/04/29 14:05:40;;;;;;;;;;;18.70;59.70;;;;;;5053638;28;982;-73
2022/04/29 14:08:06;;;;;;;;;;;18.70;59.70;;;;;;5053004;28;1355;-73
2022/04/29 14:10:31;;;;;;;;;;;18.70;59.70;;;;;;5074229;28;1261;-72
2022/04/29 14:12:58;;;;;;;;;;;18.70;59.70;;;;;;5054356;28;1087;-73
2022/04/29 14:15:23;;;;;;;;;;;18.70;59.70;;;;;;5054336;28;1123;-73
2022/04/29 14:17:49;;;;;;;;;;;18.70;59.70;;;;;;5045989;28;1309;-73
2022/04/29 14:20:15;;;;;;;;;;;18.70;59.70;;;;;;5052993;28;1898;-73
2022/04/29 14:22:40;;;;;;;;;;;18.70;59.70;;;;;;5053162;28;1127;-73
2022/04/29 14:25:07;;;;;;;;;;;18.70;59.70;;;;;;5054385;28;1071;-72
2022/04/29 14:27:33;;;;;;;;;;;18.70;59.70;;;;;;5052676;28;1237;-73
2022/04/29 14:29:59;;;;;;;;;;;18.70;59.70;;;;;;5052649;28;1369;-73
2022/04/29 14:32:25;;;;;;;;;;;18.70;59.70;;;;;;5054123;28;1377;-73
2022/04/29 14:34:50;;;;;;;;;;;18.70;59.80;;;;;;5054285;28;1130;-73
2022/04/29 14:37:16;;;;;;;;;;;18.70;59.80;;;;;;5049988;28;1361;-73
2022/04/29 14:39:42;;;;;;;;;;;18.70;59.80;;;;;;5053011;28;1969;-73
2022/04/29 14:42:07;;;;;;;;;;;18.70;60.40;;;;;;5052799;28;1135;-73
2022/04/29 14:44:34;;;;;;;;;;;18.70;59.80;;;;;;5040676;28;1312;-73
2022/04/29 14:47:00;;;;;;;;;;;18.70;59.80;;;;;;5053829;28;1405;-73
2022/04/29 14:49:26;;;;;;;;;;;18.70;59.80;;;;;;5053705;28;1342;-73
2022/04/29 14:51:55;;;;;;;;;;;18.70;59.80;;;;;;5053877;28;1123;-73
2022/04/29 14:54:20;;;;;;;;;;;18.70;59.80;;;;;;5052551;28;1088;-73
2022/04/29 14:56:46;;;;;;;;;;;18.70;59.80;;;;;;5052571;28;1119;-73
2022/04/29 14:59:11;;;;;;;;;;;18.70;59.80;;;;;;5053492;28;1961;-74
2022/04/29 15:01:37;;;;;;;;;;;18.70;59.80;;;;;;5053856;28;1311;-73
2022/04/29 15:04:04;;;;;;;;;;;18.70;59.80;;;;;;5054032;28;1104;-73